Time;durP1;ratioP1;P1;durP2;ratioP2;P2;SDS_P1;SDS_P2;PMS_P1;PMS_P2;Temp;Humidity;BMP_temperature;BMP_pressure;BME280_temperature;BME280_humidity;BME280_pressure;Samples;Min_cycle;Max_cycle;Signal;HPM_P1;HPM_P2
2021/01/28 00:00:38;;;;;;;4.45;1.58;;;;;;;9.74;46.83;100857.88;5011426;28;20326;-63
2021/01/28 00:03:06;;;;;;;11.00;1.98;;;;;;;9.71;47.00;100862.22;5011869;28;20116;-63
2021/01/28 00:05:37;;;;;;;6.18;1.73;;;;;;;9.69;47.07;100874.47;5012473;28;20209;-63
2021/01/28 00:08:04;;;;;;;11.57;1.67;;;;;;;9.69;46.88;100875.34;5012097;28;20125;-63
2021/01/28 00:10:32;;;;;;;5.93;2.20;;;;;;;9.65;47.04;100883.16;5012187;28;20121;-63
2021/01/28 00:13:01;;;;;;;8.02;1.98;;;;;;;9.65;47.11;100878.75;5016835;28;20472;-65
2021/01/28 00:15:31;;;;;;;5.95;1.55;;;;;;;9.63;47.35;100888.41;5011933;28;20495;-63
2021/01/28 00:17:59;;;;;;;5.65;1.40;;;;;;;9.60;47.61;100890.97;4994916;28;20457;-63
2021/01/28 00:20:28;;;;;;;3.92;1.40;;;;;;;9.59;47.62;100887.44;5003511;28;20050;-63
2021/01/28 00:22:57;;;;;;;8.38;2.03;;;;;;;9.59;47.75;100883.91;5012210;28;20044;-63
2021/01/28 00:25:25;;;;;;;9.07;1.90;;;;;;;9.59;47.47;100890.06;5011944;28;20041;-63
2021/01/28 00:27:53;;;;;;;6.28;2.85;;;;;;;9.58;47.52;100885.66;5011815;28;20132;-63
2021/01/28 00:30:23;;;;;;;7.70;2.40;;;;;;;9.51;47.57;100891.66;5011250;28;20044;-63
2021/01/28 00:32:51;;;;;;;11.43;3.13;;;;;;;9.41;47.85;100900.22;5011933;28;20137;-63
2021/01/28 00:35:25;;;;;;;10.98;2.80;;;;;;;9.38;47.73;100897.53;5012457;28;20132;-63
2021/01/28 00:37:52;;;;;;;5.60;2.03;;;;;;;9.38;47.95;100894.00;5011562;28;20048;-63
2021/01/28 00:40:20;;;;;;;14.13;5.22;;;;;;;9.34;48.23;100893.03;5011090;28;20040;-63
2021/01/28 00:42:49;;;;;;;7.80;2.70;;;;;;;9.31;47.84;100892.09;5011290;28;20066;-63
2021/01/28 00:45:18;;;;;;;9.65;2.90;;;;;;;9.26;48.33;100889.31;5010940;28;20049;-63
2021/01/28 00:47:46;;;;;;;4.95;2.63;;;;;;;9.24;48.40;100890.16;5011269;28;20181;-63
2021/01/28 00:50:14;;;;;;;9.68;2.50;;;;;;;9.19;48.66;100890.91;5011343;28;20077;-63
2021/01/28 00:52:42;;;;;;;6.43;2.13;;;;;;;9.18;48.81;100880.38;5011617;28;20030;-63
2021/01/28 00:55:11;;;;;;;6.03;1.55;;;;;;;9.19;49.03;100882.13;5011047;28;20545;-63
2021/01/28 00:57:40;;;;;;;5.43;1.95;;;;;;;9.21;48.96;100890.97;5010611;28;20080;-64
2021/01/28 01:00:11;;;;;;;8.27;1.88;;;;;;;9.19;49.06;100882.13;5012311;28;20096;-63
2021/01/28 01:02:38;;;;;;;8.02;1.60;;;;;;;9.18;49.42;100885.66;5008382;28;20455;-63
2021/01/28 01:05:07;;;;;;;6.32;2.03;;;;;;;9.22;49.51;100892.75;5010837;28;20105;-64
2021/01/28 01:07:34;;;;;;;7.15;1.77;;;;;;;9.26;49.55;100893.69;5013022;28;20129;-63
2021/01/28 01:10:01;;;;;;;7.65;2.58;;;;;;;9.24;49.67;100893.69;5017788;28;20053;-64
2021/01/28 01:12:30;;;;;;;4.80;1.50;;;;;;;9.28;49.86;100899.91;5011155;28;20038;-63
2021/01/28 01:14:59;;;;;;;7.60;2.17;;;;;;;9.22;50.37;100903.28;5011396;28;20061;-63
2021/01/28 01:17:26;;;;;;;3.25;1.20;;;;;;;9.18;50.70;100904.06;5010409;28;20042;-63
2021/01/28 01:19:53;;;;;;;8.93;1.75;;;;;;;9.15;50.81;100901.34;5011478;28;20076;-63
2021/01/28 01:22:21;;;;;;;3.03;1.17;;;;;;;9.14;50.79;100899.56;5010464;28;20076;-63
2021/01/28 01:24:48;;;;;;;8.23;1.95;;;;;;;9.16;50.58;100897.88;5010846;28;20122;-63
2021/01/28 01:27:15;;;;;;;6.78;1.83;;;;;;;9.18;50.76;100897.06;5013220;28;20629;-63
2021/01/28 01:29:42;;;;;;;6.28;1.38;;;;;;;9.16;50.96;100895.25;5019752;28;20124;-63
2021/01/28 01:32:11;;;;;;;6.70;1.50;;;;;;;9.23;50.70;100896.28;5010598;28;20077;-64
2021/01/28 01:34:38;;;;;;;2.97;1.73;;;;;;;9.22;50.25;100889.22;5010913;28;20151;-63
2021/01/28 01:37:05;;;;;;;3.63;1.50;;;;;;;9.25;50.24;100892.84;5018883;28;20495;-63
2021/01/28 01:39:32;;;;;;;6.68;1.90;;;;;;;9.25;50.11;100892.84;5014482;28;20061;-63
2021/01/28 01:41:59;;;;;;;5.88;2.55;;;;;;;9.29;50.06;100899.94;5010679;28;20691;-63
2021/01/28 01:44:26;;;;;;;7.05;1.75;;;;;;;9.29;50.07;100885.88;5002094;28;20045;-63
2021/01/28 01:46:59;;;;;;;6.43;1.50;;;;;;;9.28;50.14;100882.34;5009704;28;20053;-63
2021/01/28 01:49:27;;;;;;;9.18;2.47;;;;;;;9.31;50.03;100878.91;5019896;28;20047;-63
2021/01/28 01:51:56;;;;;;;4.57;1.52;;;;;;;9.30;50.22;100875.38;5011159;28;20050;-63
2021/01/28 01:54:32;;;;;;;6.55;1.40;;;;;;;9.26;50.55;100881.41;5010465;28;20068;-62
2021/01/28 01:57:02;;;;;;;5.07;1.33;;;;;;;9.22;50.65;100879.59;5011342;28;20066;-63
2021/01/28 01:59:35;;;;;;;6.85;2.03;;;;;;;9.23;50.69;100883.09;5009484;28;20100;-63
2021/01/28 02:02:05;;;;;;;3.97;1.90;;;;;;;9.19;51.10;100895.31;5009486;28;20116;-64
2021/01/28 02:04:35;;;;;;;7.78;2.15;;;;;;;9.16;51.26;100893.50;4999592;28;20046;-63
2021/01/28 02:07:07;;;;;;;7.38;2.38;;;;;;;9.18;51.19;100902.34;5010107;28;20064;-64
2021/01/28 02:09:35;;;;;;;6.75;1.30;;;;;;;9.21;50.86;100904.13;5014706;28;20054;-63
2021/01/28 02:12:02;;;;;;;3.95;1.00;;;;;;;9.18;51.29;100906.72;5010087;28;20123;-64
2021/01/28 02:14:30;;;;;;;6.28;1.40;;;;;;;9.15;51.44;100907.53;5011106;28;20482;-63
2021/01/28 02:17:01;;;;;;;3.88;1.17;;;;;;;9.07;51.59;100902.91;4992887;28;20038;-63
2021/01/28 02:19:52;;;;;;;6.43;1.33;;;;;;;9.02;51.89;100907.19;5001840;28;20046;-63
2021/01/28 02:22:30;;;;;;;3.20;1.23;;;;;;;8.99;52.16;100901.88;5009892;28;20112;-63
2021/01/28 02:25:04;;;;;;;2.42;0.95;;;;;;;8.92;52.39;100900.81;5015524;28;20045;-63
2021/01/28 02:27:33;;;;;;;5.60;1.10;;;;;;;8.84;53.09;100896.22;4990689;28;20137;-63
2021/01/28 02:30:00;;;;;;;4.50;0.75;;;;;;;8.76;53.32;100904.81;5003601;28;20046;-63
2021/01/28 02:32:27;;;;;;;5.15;1.02;;;;;;;8.72;53.60;100900.34;5002212;28;20429;-63
2021/01/28 02:34:54;;;;;;;3.55;1.00;;;;;;;8.66;53.51;100899.28;5009529;28;20132;-63
2021/01/28 02:37:23;;;;;;;7.97;2.35;;;;;;;8.69;52.90;100905.50;5009804;28;20058;-63
2021/01/28 02:39:50;;;;;;;6.07;1.83;;;;;;;8.77;52.49;100910.97;5003549;28;20042;-63
2021/01/28 02:42:27;;;;;;;3.88;0.90;;;;;;;8.75;52.69;100910.94;5009279;28;20477;-63
2021/01/28 02:44:56;;;;;;;5.43;1.27;;;;;;;8.72;53.14;100902.97;5003744;28;20034;-63
2021/01/28 02:47:23;;;;;;;6.32;1.65;;;;;;;8.71;53.24;100897.66;5009802;28;20042;-63
2021/01/28 02:49:50;;;;;;;2.67;0.80;;;;;;;8.63;53.46;100900.09;5009727;28;20053;-63
2021/01/28 02:52:18;;;;;;;3.08;1.00;;;;;;;8.56;53.82;100892.88;5009265;28;20042;-64
2021/01/28 02:54:47;;;;;;;11.32;1.23;;;;;;;8.53;54.13;100899.84;5020476;28;20088;-63
2021/01/28 02:57:15;;;;;;;5.40;1.33;;;;;;;8.50;54.09;100905.88;5017856;28;20587;-63
2021/01/28 02:59:42;;;;;;;4.20;1.10;;;;;;;8.53;53.98;100898.09;5013394;28;20613;-63
2021/01/28 03:02:13;;;;;;;3.80;1.42;;;;;;;8.55;53.98;100903.38;5013231;28;20136;-64
2021/01/28 03:04:40;;;;;;;3.17;0.98;;;;;;;8.50;53.98;100895.38;5013213;28;20049;-63
2021/01/28 03:07:09;;;;;;;5.68;1.10;;;;;;;8.52;54.04;100906.81;5012808;28;20080;-64
2021/01/28 03:09:36;;;;;;;5.72;0.80;;;;;;;8.57;53.96;100906.94;5013604;28;20058;-64
2021/01/28 03:12:04;;;;;;;6.70;0.90;;;;;;;8.54;54.36;100904.22;5012895;28;20125;-64
2021/01/28 03:14:32;;;;;;;6.88;1.25;;;;;;;8.50;54.59;100912.88;5013150;28;20085;-63
2021/01/28 03:16:59;;;;;;;4.75;1.15;;;;;;;8.44;54.77;100910.09;5013228;28;20061;-64
2021/01/28 03:19:27;;;;;;;4.68;1.00;;;;;;;8.49;54.37;100911.09;5012739;28;20092;-64
2021/01/28 03:21:55;;;;;;;4.55;0.85;;;;;;;8.50;54.52;100913.78;5013252;28;20559;-63
2021/01/28 03:24:22;;;;;;;5.22;1.23;;;;;;;8.48;54.74;100910.22;4993283;28;20042;-64
2021/01/28 03:26:49;;;;;;;4.45;1.10;;;;;;;8.46;55.04;100906.66;5006646;28;20044;-63
2021/01/28 03:29:16;;;;;;;4.93;1.15;;;;;;;8.45;55.26;100910.16;5018410;28;20120;-63
2021/01/28 03:31:43;;;;;;;6.30;1.00;;;;;;;8.45;55.18;100914.50;5030374;28;20629;-63
2021/01/28 03:34:11;;;;;;;3.50;0.70;;;;;;;8.48;55.17;100912.84;5012326;28;20116;-64
2021/01/28 03:36:39;;;;;;;6.68;1.02;;;;;;;8.53;54.85;100920.88;5012591;28;20436;-63
2021/01/28 03:39:07;;;;;;;2.78;0.90;;;;;;;8.50;55.30;100924.31;5008206;28;20119;-64
2021/01/28 03:41:34;;;;;;;2.97;1.35;;;;;;;8.44;55.90;100918.88;5012972;28;20406;-63
2021/01/28 03:44:02;;;;;;;5.97;1.05;;;;;;;8.42;56.10;100919.69;5025074;28;20065;-64
2021/01/28 03:46:29;;;;;;;5.03;1.50;;;;;;;8.42;56.07;100914.41;5012746;28;20546;-64
2021/01/28 03:48:56;;;;;;;5.97;0.80;;;;;;;8.43;55.92;100913.56;5013650;28;20103;-64
2021/01/28 03:51:23;;;;;;;5.80;0.85;;;;;;;8.50;55.41;100919.03;5011958;28;20124;-64
2021/01/28 03:53:52;;;;;;;2.58;0.82;;;;;;;8.58;55.47;100919.25;5012307;28;20047;-64
2021/01/28 03:56:19;;;;;;;6.35;0.90;;;;;;;8.65;55.42;100923.81;5018687;28;20053;-64
2021/01/28 03:58:46;;;;;;;3.97;0.80;;;;;;;8.70;55.41;100924.81;5032117;28;20141;-64
2021/01/28 04:01:13;;;;;;;3.65;0.90;;;;;;;8.76;55.34;100922.34;5020310;28;20057;-64
2021/01/28 04:03:40;;;;;;;6.85;1.08;;;;;;;8.80;55.20;100917.19;5012437;28;20120;-64
2021/01/28 04:06:07;;;;;;;8.95;1.65;;;;;;;8.84;55.58;100922.53;5017689;28;20095;-64
2021/01/28 04:08:34;;;;;;;5.97;1.20;;;;;;;8.82;55.93;100924.25;5016885;28;20045;-64
2021/01/28 04:11:03;;;;;;;3.53;1.15;;;;;;;8.83;56.11;100924.28;5012006;28;20069;-65
2021/01/28 04:13:30;;;;;;;4.53;0.82;;;;;;;8.82;56.40;100926.88;5010867;28;20045;-64
2021/01/28 04:15:57;;;;;;;4.40;1.90;;;;;;;8.90;55.71;100930.59;5013847;28;20125;-64
2021/01/28 04:18:25;;;;;;;9.20;1.23;;;;;;;8.98;55.37;100926.41;5015179;28;20181;-64
2021/01/28 04:20:52;;;;;;;2.17;0.98;;;;;;;9.05;55.45;100928.34;5017775;28;20084;-64
2021/01/28 04:23:19;;;;;;;5.22;1.30;;;;;;;9.10;55.53;100934.59;5011807;28;20030;-63
2021/01/28 04:25:47;;;;;;;5.43;1.02;;;;;;;9.12;55.39;100933.75;5018035;28;20042;-64
2021/01/28 04:28:15;;;;;;;4.05;0.88;;;;;;;9.14;55.49;100944.34;5012047;28;20268;-66
2021/01/28 04:30:42;;;;;;;3.35;0.80;;;;;;;9.14;55.33;100947.88;5011575;28;20034;-64
2021/01/28 04:33:10;;;;;;;9.30;1.60;;;;;;;9.16;55.39;100943.53;5011722;28;20136;-64
2021/01/28 04:35:37;;;;;;;5.35;1.23;;;;;;;9.20;55.55;100949.75;5012400;28;20042;-64
2021/01/28 04:38:05;;;;;;;3.63;1.30;;;;;;;9.27;55.13;100953.44;5011657;28;20061;-63
2021/01/28 04:40:38;;;;;;;7.15;1.42;;;;;;;9.31;54.92;100957.94;5011116;28;20115;-64
2021/01/28 04:43:15;;;;;;;4.90;1.50;;;;;;;9.33;55.55;100948.31;5015792;28;20640;-64
2021/01/28 04:45:44;;;;;;;4.30;1.23;;;;;;;9.30;55.51;100949.13;5012054;28;20124;-63
2021/01/28 04:48:12;;;;;;;11.80;2.53;;;;;;;9.26;55.23;100949.91;5011362;28;20403;-63
2021/01/28 04:50:42;;;;;;;17.77;4.40;;;;;;;9.23;55.47;100959.50;5011921;28;20038;-63
2021/01/28 04:53:15;;;;;;;14.25;4.15;;;;;;;9.18;55.69;100962.03;5019052;28;20475;-63
2021/01/28 04:55:45;;;;;;;4.78;1.40;;;;;;;9.16;55.50;100961.09;5013063;28;20038;-64
2021/01/28 04:58:13;;;;;;;4.47;1.13;;;;;;;9.15;55.26;100961.94;5026893;28;20160;-64
2021/01/28 05:00:41;;;;;;;3.67;1.05;;;;;;;9.12;55.16;100953.97;5012349;28;20583;-63
2021/01/28 05:03:25;;;;;;;5.82;0.90;;;;;;;9.09;54.85;100957.41;5012802;28;20072;-64
2021/01/28 05:05:54;;;;;;;5.53;1.30;;;;;;;9.05;54.73;100965.22;5011207;28;20045;-63
2021/01/28 05:08:22;;;;;;;4.90;1.70;;;;;;;9.04;54.43;100973.94;5014230;28;20214;-63
2021/01/28 05:10:51;;;;;;;5.70;1.65;;;;;;;9.05;54.36;100979.25;5011544;28;20133;-63
2021/01/28 05:13:30;;;;;;;2.58;1.27;;;;;;;9.10;54.28;100980.25;5010484;28;20044;-63
2021/01/28 05:16:00;;;;;;;3.95;1.10;;;;;;;9.11;54.41;100971.50;5004985;28;20062;-63
2021/01/28 05:18:32;;;;;;;4.75;1.05;;;;;;;9.13;54.08;100966.25;5010746;28;20132;-64
2021/01/28 05:21:11;;;;;;;4.03;1.15;;;;;;;9.15;53.97;100972.47;5006055;28;20060;-63
2021/01/28 05:23:41;;;;;;;3.50;1.00;;;;;;;9.14;54.20;100971.56;5021332;28;20042;-64
2021/01/28 05:26:31;;;;;;;2.70;1.13;;;;;;;9.16;54.10;100982.16;5010959;28;20129;-64
2021/01/28 05:29:23;;;;;;;6.68;1.40;;;;;;;9.17;54.34;100983.94;5010486;28;20108;-63
2021/01/28 05:31:52;;;;;;;4.18;1.10;;;;;;;9.14;54.19;100984.75;5013191;28;20129;-64
2021/01/28 05:34:24;;;;;;;4.13;1.10;;;;;;;9.15;54.59;100988.25;5012529;28;20060;-64
2021/01/28 05:36:56;;;;;;;3.97;0.60;;;;;;;9.17;54.59;101002.38;5011061;28;20042;-63
2021/01/28 05:39:27;;;;;;;2.05;1.00;;;;;;;9.21;54.68;101004.22;5010175;28;20061;-64
2021/01/28 05:42:13;;;;;;;6.35;0.70;;;;;;;9.26;54.88;101010.47;5014393;28;20472;-64
2021/01/28 05:44:40;;;;;;;4.50;1.00;;;;;;;9.31;54.84;101014.16;5008875;28;20042;-63
2021/01/28 05:47:10;;;;;;;3.60;1.35;;;;;;;9.40;54.32;101014.34;5010392;28;20125;-65
2021/01/28 05:49:40;;;;;;;8.52;1.63;;;;;;;9.47;54.42;101025.94;5011175;28;20561;-63
2021/01/28 05:52:19;;;;;;;2.38;1.10;;;;;;;9.53;54.63;101019.06;5009948;28;20132;-63
2021/01/28 05:55:03;;;;;;;2.55;1.05;;;;;;;9.61;55.03;101024.53;5010368;28;20073;-64
2021/01/28 05:57:37;;;;;;;5.13;1.30;;;;;;;9.64;54.83;101016.69;5009560;28;20048;-64
2021/01/28 06:00:11;;;;;;;4.40;1.25;;;;;;;9.68;54.92;101025.56;5010201;28;20446;-63
2021/01/28 06:03:14;;;;;;;6.00;1.83;;;;;;;9.77;54.79;101025.78;5017183;28;20041;-63
2021/01/28 06:05:55;;;;;;;5.93;1.77;;;;;;;9.81;54.91;101028.50;5001404;28;20112;-63
2021/01/28 06:08:51;;;;;;;7.47;1.48;;;;;;;9.90;54.07;101022.56;5002017;28;20053;-64
2021/01/28 06:11:52;;;;;;;4.72;1.63;;;;;;;9.97;54.06;101009.56;5010372;28;20124;-64
2021/01/28 06:14:49;;;;;;;5.60;1.10;;;;;;;10.04;53.66;101018.50;5020472;28;20116;-63
2021/01/28 06:17:43;;;;;;;6.63;2.08;;;;;;;10.12;53.87;101014.25;5009939;28;20042;-64
2021/01/28 06:20:21;;;;;;;9.77;2.15;;;;;;;10.21;53.37;101013.59;5008332;28;20038;-64
2021/01/28 06:23:10;;;;;;;12.23;4.10;;;;;;;10.29;53.12;101002.34;5010008;28;20534;-63
2021/01/28 06:25:57;;;;;;;7.47;2.67;;;;;;;10.37;52.84;101011.28;5009657;28;20129;-64
2021/01/28 06:29:02;;;;;;;11.80;4.07;;;;;;;10.45;52.22;101007.91;5029112;28;20132;-63
2021/01/28 06:31:44;;;;;;;11.65;4.10;;;;;;;10.49;51.99;101009.78;5026272;28;20459;-63
2021/01/28 06:34:35;;;;;;;10.75;3.28;;;;;;;10.53;51.79;101015.13;5014665;28;20069;-64
2021/01/28 06:37:21;;;;;;;5.65;2.50;;;;;;;10.55;51.82;101021.34;5033717;28;20541;-66
2021/01/28 06:39:52;;;;;;;3.83;1.67;;;;;;;10.59;51.65;101033.72;5019903;28;20042;-63
2021/01/28 06:42:28;;;;;;;7.28;1.77;;;;;;;10.62;51.08;101040.81;5032868;28;20124;-64
2021/01/28 06:45:01;;;;;;;6.40;2.00;;;;;;;10.67;51.13;101036.53;5019901;28;20065;-63
2021/01/28 06:47:35;;;;;;;7.77;2.10;;;;;;;10.75;51.53;101034.94;5013244;28;20499;-64
2021/01/28 06:50:10;;;;;;;4.63;1.80;;;;;;;10.83;51.44;101025.38;5013144;28;20330;-64
2021/01/28 06:52:59;;;;;;;4.95;2.17;;;;;;;11.03;51.10;101023.09;5013048;28;20049;-63
2021/01/28 06:55:36;;;;;;;5.07;2.03;;;;;;;11.23;50.88;101026.97;5013251;28;20495;-64
2021/01/28 06:58:14;;;;;;;7.70;2.20;;;;;;;11.59;50.25;101029.34;4981110;28;20046;-65
2021/01/28 07:00:47;;;;;;;8.05;2.88;;;;;;;11.99;50.09;101036.16;4993577;28;20463;-63
2021/01/28 07:03:22;;;;;;;10.45;5.30;;;;;;;12.17;49.54;101030.22;4993243;28;20034;-64
2021/01/28 07:05:57;;;;;;;4.55;2.45;;;;;;;12.45;49.46;101036.75;4993514;28;20129;-63
2021/01/28 07:09:12;;;;;;;6.32;2.67;;;;;;;12.83;48.87;101038.09;4991538;28;20042;-64
2021/01/28 07:11:41;;;;;;;4.07;0.80;;;;;;;13.24;48.47;101032.34;4982849;28;20105;-64
2021/01/28 07:14:14;;;;;;;2.40;1.08;;;;;;;13.69;47.91;101038.03;4993214;28;20121;-64
2021/01/28 07:16:50;;;;;;;6.72;2.08;;;;;;;14.14;47.92;101039.19;4993735;28;20058;-64
2021/01/28 07:19:21;;;;;;;3.20;1.50;;;;;;;14.21;46.93;101033.91;4987864;28;20066;-64
2021/01/28 07:21:51;;;;;;;6.32;2.00;;;;;;;14.41;47.31;101034.03;4993325;28;20116;-64
2021/01/28 07:24:33;;;;;;;4.97;1.35;;;;;;;14.79;46.19;101034.19;4982534;28;20066;-64
2021/01/28 07:27:03;;;;;;;4.22;1.33;;;;;;;14.99;46.18;101029.78;4989453;28;20130;-63
2021/01/28 07:29:55;;;;;;;4.38;1.80;;;;;;;15.19;45.51;101031.59;5012808;28;20129;-64
2021/01/28 07:32:52;;;;;;;5.72;2.00;;;;;;;15.20;44.48;101041.34;4971566;28;20047;-64
2021/01/28 07:35:47;;;;;;;5.22;1.83;;;;;;;15.17;44.73;101044.88;4990191;28;20038;-64
2021/01/28 07:38:55;;;;;;;7.18;2.60;;;;;;;14.85;44.19;101042.16;4993176;28;20042;-64
2021/01/28 07:41:26;;;;;;;7.53;2.25;;;;;;;14.67;45.22;101044.78;4984524;28;20104;-63
2021/01/28 07:44:15;;;;;;;8.10;3.03;;;;;;;14.59;44.97;101044.75;4990460;28;20058;-64
2021/01/28 07:46:43;;;;;;;7.53;2.08;;;;;;;14.52;44.40;101060.66;4993169;28;20036;-64
2021/01/28 07:49:17;;;;;;;3.75;1.40;;;;;;;14.38;43.54;101051.72;5012306;28;20113;-64
2021/01/28 07:51:46;;;;;;;8.80;3.22;;;;;;;14.28;43.57;101058.75;5012124;28;20499;-64
2021/01/28 07:54:36;;;;;;;6.68;2.60;;;;;;;14.28;43.81;101067.59;5004265;28;20129;-64
2021/01/28 07:57:05;;;;;;;9.00;2.30;;;;;;;14.32;43.90;101071.13;5010719;28;20566;-64
2021/01/28 07:59:48;;;;;;;7.65;3.22;;;;;;;14.25;44.01;101078.19;5010309;28;20045;-64
2021/01/28 08:02:23;;;;;;;8.55;2.85;;;;;;;14.06;43.60;101075.41;5011640;28;20470;-64
2021/01/28 08:04:56;;;;;;;10.77;2.53;;;;;;;13.85;43.92;101081.47;5011320;28;20030;-64
2021/01/28 08:07:27;;;;;;;10.00;2.97;;;;;;;13.70;44.73;101084.00;5011243;28;20042;-64
2021/01/28 08:09:56;;;;;;;11.63;4.22;;;;;;;13.59;45.36;101089.22;5012078;28;20121;-64
2021/01/28 08:12:30;;;;;;;5.22;2.83;;;;;;;13.46;45.99;101088.22;5012128;28;20097;-64
2021/01/28 08:15:00;;;;;;;5.28;2.35;;;;;;;13.40;46.22;101082.88;5005574;28;20050;-64
2021/01/28 08:17:34;;;;;;;6.85;2.20;;;;;;;13.29;46.03;101096.91;5011857;28;20119;-64
2021/01/28 08:20:25;;;;;;;7.15;2.38;;;;;;;13.16;46.33;101101.19;5012126;28;20242;-63
2021/01/28 08:22:55;;;;;;;11.43;3.80;;;;;;;13.09;46.40;101099.31;4994442;28;20125;-64
2021/01/28 08:25:24;;;;;;;6.82;2.90;;;;;;;13.09;46.07;101084.31;5009596;28;20073;-64
2021/01/28 08:27:51;;;;;;;8.48;3.45;;;;;;;13.06;46.07;101088.69;4992653;28;20495;-64
2021/01/28 08:30:22;;;;;;;16.52;6.65;;;;;;;12.98;45.95;101090.38;5010899;28;20080;-64
2021/01/28 08:32:56;;;;;;;11.00;5.13;;;;;;;12.87;45.92;101092.88;5011934;28;20499;-64
2021/01/28 08:35:28;;;;;;;9.93;4.75;;;;;;;12.86;46.19;101088.47;5006868;28;20038;-64
2021/01/28 08:38:15;;;;;;;10.10;4.20;;;;;;;12.95;46.53;101085.00;5010372;28;20036;-64
2021/01/28 08:40:43;;;;;;;12.88;4.57;;;;;;;13.04;46.22;101077.19;5009208;28;20124;-64
2021/01/28 08:43:15;;;;;;;17.27;5.97;;;;;;;13.22;45.82;101080.03;5009888;28;20049;-64
2021/01/28 08:45:43;;;;;;;19.30;8.38;;;;;;;13.37;45.74;101066.06;5011508;28;20128;-64
2021/01/28 08:48:14;;;;;;;37.33;11.35;;;;;;;13.55;45.51;101071.50;5011355;28;20091;-64
2021/01/28 08:50:42;;;;;;;17.67;7.40;;;;;;;13.63;45.20;101069.81;5010952;28;20046;-64
2021/01/28 08:53:18;;;;;;;34.00;10.27;;;;;;;13.70;44.73;101060.13;5006559;28;20038;-64
2021/01/28 08:55:46;;;;;;;19.35;6.50;;;;;;;13.78;44.67;101059.31;5010118;28;20057;-64
2021/01/28 08:58:20;;;;;;;19.58;8.00;;;;;;;13.90;44.56;101051.44;5010401;28;20404;-64
2021/01/28 09:00:51;;;;;;;18.83;8.48;;;;;;;14.07;44.60;101038.25;5011234;28;20511;-64
2021/01/28 09:03:23;;;;;;;12.00;5.22;;;;;;;14.23;44.11;101036.59;5007628;28;20034;-64
2021/01/28 09:05:52;;;;;;;11.52;5.45;;;;;;;14.30;43.99;101036.63;5011225;28;20128;-64
2021/01/28 09:08:34;;;;;;;13.02;4.32;;;;;;;14.38;44.78;101038.44;5010977;28;20126;-65
2021/01/28 09:11:09;;;;;;;11.50;4.80;;;;;;;14.38;44.77;101035.78;5004703;28;20069;-64
2021/01/28 09:13:37;;;;;;;10.32;4.70;;;;;;;14.34;44.07;101034.88;5006201;28;20044;-64
2021/01/28 09:16:12;;;;;;;10.63;4.03;;;;;;;14.30;44.01;101036.63;5008266;28;20037;-65
2021/01/28 09:18:42;;;;;;;10.90;3.65;;;;;;;14.37;44.21;101029.59;5003630;28;20034;-64
2021/01/28 09:21:12;;;;;;;8.23;3.22;;;;;;;14.50;44.27;101035.88;5008291;28;20046;-65
2021/01/28 09:23:55;;;;;;;6.90;2.72;;;;;;;14.77;45.01;101024.44;4991569;28;20125;-64
2021/01/28 09:26:24;;;;;;;12.15;4.28;;;;;;;14.98;44.24;101030.69;4992158;28;20070;-64
2021/01/28 09:28:51;;;;;;;7.38;2.75;;;;;;;15.14;43.34;101021.84;5010398;28;20042;-63
2021/01/28 09:31:28;;;;;;;12.13;4.38;;;;;;;15.26;42.22;101020.06;4995635;28;20039;-64
2021/01/28 09:33:55;;;;;;;4.35;1.45;;;;;;;15.48;41.32;101011.22;4991732;28;20129;-64
2021/01/28 09:36:26;;;;;;;4.57;2.00;;;;;;;15.85;40.32;101007.66;4990971;28;20089;-64
2021/01/28 09:39:04;;;;;;;11.27;4.28;;;;;;;16.17;39.26;101004.00;5008613;28;20169;-64
2021/01/28 09:41:36;;;;;;;11.73;3.95;;;;;;;16.28;39.42;100994.19;5002566;28;20407;-64
2021/01/28 09:44:05;;;;;;;6.28;2.25;;;;;;;16.42;38.84;100986.13;5008140;28;20038;-64
2021/01/28 09:46:33;;;;;;;4.18;1.50;;;;;;;16.54;39.43;100986.97;4992875;28;20038;-64
2021/01/28 09:49:02;;;;;;;9.00;2.85;;;;;;;16.62;39.22;100979.84;4997052;28;20038;-64
2021/01/28 09:51:33;;;;;;;12.07;3.92;;;;;;;16.79;39.32;100963.78;5010926;28;20103;-64
2021/01/28 09:54:15;;;;;;;17.05;4.22;;;;;;;16.96;38.67;100971.63;5006121;28;20042;-63
2021/01/28 09:56:43;;;;;;;10.52;4.55;;;;;;;16.94;38.65;100968.09;4994341;28;20133;-64
2021/01/28 09:59:13;;;;;;;10.88;5.03;;;;;;;16.94;38.52;100968.97;5019364;28;20431;-64
2021/01/28 10:01:41;;;;;;;12.60;6.22;;;;;;;16.96;38.66;100971.63;5022129;28;20045;-64
2021/01/28 10:04:09;;;;;;;13.98;6.38;;;;;;;16.94;38.58;100963.63;5029848;28;20128;-64
2021/01/28 10:06:36;;;;;;;17.45;9.10;;;;;;;16.86;38.47;100965.50;5023258;28;20096;-64
2021/01/28 10:09:04;;;;;;;22.00;7.68;;;;;;;16.71;38.68;100961.16;5029859;28;20117;-64
2021/01/28 10:11:31;;;;;;;12.35;3.95;;;;;;;16.59;39.04;100955.88;5013605;28;20120;-64
2021/01/28 10:13:59;;;;;;;20.70;7.82;;;;;;;16.51;38.92;100959.44;5009870;28;20527;-64
2021/01/28 10:16:27;;;;;;;9.75;3.50;;;;;;;16.46;38.77;100956.81;5026898;28;20121;-64
2021/01/28 10:18:56;;;;;;;6.97;3.13;;;;;;;16.33;38.52;100944.47;5002889;28;20037;-64
2021/01/28 10:21:23;;;;;;;11.80;4.75;;;;;;;16.14;38.29;100942.78;5007077;28;20044;-64
2021/01/28 10:23:50;;;;;;;10.07;4.15;;;;;;;15.92;38.39;100948.19;5005329;28;20049;-65
2021/01/28 10:26:17;;;;;;;5.85;2.55;;;;;;;15.76;39.02;100942.88;5005643;28;20042;-67
2021/01/28 10:28:44;;;;;;;8.93;3.50;;;;;;;15.71;39.13;100944.69;5006767;28;20100;-65
2021/01/28 10:31:11;;;;;;;10.05;4.88;;;;;;;15.61;39.11;100948.25;5008570;28;20057;-65
2021/01/28 10:33:39;;;;;;;11.35;5.68;;;;;;;15.51;38.88;100944.69;5004220;28;20045;-64
2021/01/28 10:36:07;;;;;;;16.70;9.68;;;;;;;15.52;39.03;100951.78;5003920;28;20045;-65
2021/01/28 10:38:35;;;;;;;17.58;9.18;;;;;;;15.56;39.41;100948.25;5005616;28;20066;-64
2021/01/28 10:41:03;;;;;;;12.52;6.82;;;;;;;15.57;40.00;100944.69;5005362;28;20586;-64
2021/01/28 10:43:30;;;;;;;17.73;8.48;;;;;;;15.53;40.26;100949.16;5002594;28;20168;-64
2021/01/28 10:45:58;;;;;;;12.77;5.25;;;;;;;15.31;39.33;100949.13;5005243;28;20042;-64
2021/01/28 10:48:25;;;;;;;12.77;6.80;;;;;;;15.13;39.44;100958.91;5003920;28;20046;-64
2021/01/28 10:50:52;;;;;;;8.23;3.95;;;;;;;14.99;39.35;100952.69;5005565;28;20569;-64
2021/01/28 10:53:20;;;;;;;30.92;17.15;;;;;;;14.97;39.82;100957.13;5004321;28;20398;-65
2021/01/28 10:55:48;;;;;;;31.02;17.33;;;;;;;14.94;40.05;100956.25;5006076;28;20501;-65
2021/01/28 10:58:15;;;;;;;17.67;10.05;;;;;;;14.99;40.50;100951.81;5004218;28;20387;-65
2021/01/28 11:00:42;;;;;;;18.60;8.75;;;;;;;15.09;40.56;100959.81;5004963;28;20526;-63
2021/01/28 11:03:09;;;;;;;10.20;3.78;;;;;;;15.11;40.30;100941.16;5000663;28;20113;-65
2021/01/28 11:05:38;;;;;;;5.10;2.70;;;;;;;15.12;40.23;100929.66;5003639;28;20041;-65
2021/01/28 11:08:06;;;;;;;18.10;9.73;;;;;;;15.08;40.31;100923.47;5003893;28;20061;-64
2021/01/28 11:10:36;;;;;;;6.72;4.05;;;;;;;15.14;39.90;100919.91;5006118;28;20076;-64
2021/01/28 11:13:04;;;;;;;6.40;2.80;;;;;;;15.20;40.00;100911.03;4999954;28;20069;-65
2021/01/28 11:15:36;;;;;;;16.33;7.00;;;;;;;15.28;39.58;100917.25;4995002;28;20039;-64
2021/01/28 11:18:04;;;;;;;27.48;15.43;;;;;;;15.33;40.10;100916.34;4990102;28;20129;-64
2021/01/28 11:20:31;;;;;;;20.13;11.48;;;;;;;15.43;40.38;100917.19;5003694;28;20116;-64
2021/01/28 11:22:59;;;;;;;9.73;5.40;;;;;;;15.51;40.83;100921.63;5006257;28;20065;-64
2021/01/28 11:25:27;;;;;;;6.30;2.90;;;;;;;15.45;40.10;100915.44;4999159;28;20091;-64
2021/01/28 11:27:56;;;;;;;13.80;5.45;;;;;;;15.34;40.11;100925.22;5011801;28;20194;-64
2021/01/28 11:30:27;;;;;;;9.23;3.53;;;;;;;15.31;40.40;100911.91;4994560;28;20069;-65
2021/01/28 11:32:55;;;;;;;5.72;2.47;;;;;;;15.21;40.19;100907.50;4995434;28;20467;-65
2021/01/28 11:35:25;;;;;;;6.57;2.47;;;;;;;15.23;40.23;100908.38;4993348;28;20537;-65
2021/01/28 11:37:52;;;;;;;9.98;2.28;;;;;;;15.20;40.66;100909.25;4994121;28;20395;-65
2021/01/28 11:40:21;;;;;;;15.30;6.55;;;;;;;15.27;41.12;100899.50;4998405;28;20042;-65
2021/01/28 11:42:48;;;;;;;22.55;11.90;;;;;;;15.36;41.46;100894.19;5002864;28;20045;-65
2021/01/28 11:45:18;;;;;;;18.58;9.93;;;;;;;15.60;42.15;100896.81;4996147;28;20517;-65
2021/01/28 11:47:45;;;;;;;19.60;8.52;;;;;;;15.71;42.00;100895.00;4992932;28;20038;-66